createdAt,value
2018-07-03T00:01:37.355Z,62.00
2018-07-03T00:04:05.675Z,61.80
2018-07-03T00:06:33.199Z,62.70
2018-07-03T00:09:00.743Z,61.80
2018-07-03T00:11:29.031Z,62.10
2018-07-03T00:13:57.338Z,62.50
2018-07-03T00:16:25.626Z,63.10
2018-07-03T00:18:53.922Z,63.00
2018-07-03T00:21:22.239Z,62.90
2018-07-03T00:23:50.527Z,63.20
2018-07-03T00:26:18.841Z,63.60
2018-07-03T00:28:47.134Z,63.50
2018-07-03T00:31:15.439Z,63.60
2018-07-03T00:33:43.725Z,63.70
2018-07-03T00:36:12.039Z,63.70
2018-07-03T00:38:40.329Z,64.20
2018-07-03T00:41:08.642Z,64.60
2018-07-03T00:43:36.939Z,64.70
2018-07-03T00:46:04.477Z,64.70
2018-07-03T00:48:32.790Z,65.10
2018-07-03T00:51:01.106Z,65.60
2018-07-03T00:53:29.385Z,65.70
2018-07-03T00:55:57.702Z,66.90
2018-07-03T00:58:25.986Z,66.60
2018-07-03T01:00:54.292Z,67.10
2018-07-03T01:03:22.578Z,67.00
2018-07-03T01:05:50.899Z,67.10
2018-07-03T01:08:19.193Z,67.30
2018-07-03T01:10:47.510Z,67.70
2018-07-03T01:13:15.805Z,67.70
2018-07-03T01:15:44.118Z,67.50
2018-07-03T01:18:12.406Z,67.50
2018-07-03T01:20:40.717Z,67.60
2018-07-03T01:23:09.002Z,68.00
2018-07-03T01:25:37.317Z,67.80
2018-07-03T01:28:05.607Z,67.80
2018-07-03T01:30:33.926Z,68.10
2018-07-03T01:33:02.214Z,68.10
2018-07-03T01:35:30.522Z,68.00
2018-07-03T01:37:58.814Z,67.90
2018-07-03T01:40:27.137Z,68.00
2018-07-03T01:42:55.426Z,68.10
2018-07-03T01:45:23.742Z,68.60
2018-07-03T01:47:52.039Z,68.70
2018-07-03T01:50:20.352Z,68.70
2018-07-03T01:52:48.637Z,69.10
2018-07-03T01:55:16.948Z,69.50
2018-07-03T01:57:45.233Z,69.60
2018-07-03T02:00:13.541Z,69.50
2018-07-03T02:02:41.829Z,69.50
2018-07-03T02:05:10.137Z,70.00
2018-07-03T02:07:38.427Z,70.00
2018-07-03T02:10:06.740Z,70.20
2018-07-03T02:12:35.026Z,70.30
2018-07-03T02:15:03.342Z,70.20
2018-07-03T02:17:31.654Z,70.90
2018-07-03T02:19:59.963Z,70.20
2018-07-03T02:22:28.278Z,70.30
2018-07-03T02:24:56.569Z,70.50
2018-07-03T02:27:24.893Z,70.90
2018-07-03T02:29:53.181Z,70.80
2018-07-03T02:32:21.494Z,71.10
2018-07-03T02:34:49.797Z,71.20
2018-07-03T02:37:18.127Z,71.30
2018-07-03T02:39:46.430Z,71.50
2018-07-03T02:42:14.731Z,72.10
2018-07-03T02:44:43.047Z,72.10
2018-07-03T02:47:11.346Z,72.00
2018-07-03T02:49:38.895Z,72.00
2018-07-03T02:52:07.193Z,72.10
2018-07-03T02:54:35.503Z,72.20
2018-07-03T02:57:03.789Z,72.90
2018-07-03T02:59:32.108Z,73.80
2018-07-03T03:02:00.398Z,73.70
2018-07-03T03:04:28.721Z,73.60
2018-07-03T03:06:57.011Z,73.40
2018-07-03T03:09:25.323Z,73.10
2018-07-03T03:11:53.612Z,73.10
2018-07-03T03:14:21.161Z,73.10
2018-07-03T03:16:49.450Z,73.70
2018-07-03T03:19:17.758Z,74.10
2018-07-03T03:21:46.050Z,74.30
2018-07-03T03:24:14.366Z,74.30
2018-07-03T03:26:42.649Z,74.00
2018-07-03T03:29:10.962Z,74.10
2018-07-03T03:31:39.250Z,74.20
2018-07-03T03:34:07.560Z,74.40
2018-07-03T03:36:35.854Z,74.50
2018-07-03T03:39:04.162Z,74.20
2018-07-03T03:41:32.458Z,74.00
2018-07-03T03:44:00.774Z,74.10
2018-07-03T03:46:29.069Z,74.10
2018-07-03T03:48:57.386Z,74.20
2018-07-03T03:51:25.673Z,74.00
2018-07-03T03:53:54.007Z,73.90
2018-07-03T03:56:22.298Z,73.60
2018-07-03T03:58:50.610Z,73.70
2018-07-03T04:01:18.902Z,73.60
2018-07-03T04:03:47.218Z,73.80
2018-07-03T04:06:15.508Z,73.70
2018-07-03T04:08:43.824Z,72.70
2018-07-03T04:11:12.113Z,68.90
2018-07-03T04:13:40.429Z,64.20
2018-07-03T04:16:08.718Z,60.00
2018-07-03T04:18:37.032Z,57.50
2018-07-03T04:21:05.314Z,55.30
2018-07-03T04:23:33.626Z,54.10
2018-07-03T04:26:01.913Z,54.60
2018-07-03T04:28:30.217Z,56.00
2018-07-03T04:30:58.498Z,57.40
2018-07-03T04:33:26.810Z,58.60
2018-07-03T04:35:55.091Z,59.50
2018-07-03T04:38:23.383Z,59.30
2018-07-03T04:40:51.693Z,57.90
2018-07-03T04:43:19.984Z,55.80
2018-07-03T04:45:48.290Z,55.30
2018-07-03T04:48:16.578Z,53.30
2018-07-03T04:50:44.878Z,52.60
2018-07-03T04:53:13.162Z,51.50
2018-07-03T04:55:41.474Z,50.80
2018-07-03T04:58:09.762Z,50.40
2018-07-03T05:00:38.074Z,49.60
2018-07-03T05:03:06.366Z,48.80
2018-07-03T05:05:34.673Z,48.50
2018-07-03T05:08:02.958Z,48.10
2018-07-03T05:10:31.266Z,47.70
2018-07-03T05:12:59.545Z,47.50
2018-07-03T05:15:27.853Z,47.40
2018-07-03T05:17:56.139Z,47.30
2018-07-03T05:20:24.458Z,48.50
2018-07-03T05:22:52.741Z,50.00
2018-07-03T05:25:21.056Z,51.40
2018-07-03T05:27:49.338Z,52.50
2018-07-03T05:30:17.651Z,53.50
2018-07-03T05:32:45.956Z,55.00
2018-07-03T05:35:14.270Z,55.00
2018-07-03T05:37:42.574Z,55.30
2018-07-03T05:40:10.886Z,55.70
2018-07-03T05:42:39.178Z,55.90
2018-07-03T05:45:07.495Z,56.10
2018-07-03T05:47:35.783Z,56.90
2018-07-03T05:50:04.100Z,56.60
2018-07-03T05:52:32.395Z,56.70
2018-07-03T05:55:00.707Z,56.80
2018-07-03T05:57:28.999Z,56.90
2018-07-03T05:59:56.539Z,56.90
2018-07-03T06:02:24.837Z,56.80
2018-07-03T06:04:53.143Z,56.90
2018-07-03T06:07:21.431Z,57.00
2018-07-03T06:09:49.738Z,56.60
2018-07-03T06:12:18.026Z,56.20
2018-07-03T06:14:46.346Z,55.80
2018-07-03T06:17:14.639Z,55.30
2018-07-03T06:19:42.955Z,55.10
2018-07-03T06:22:11.247Z,55.00
2018-07-03T06:24:39.566Z,54.80
2018-07-03T06:27:07.090Z,54.70
2018-07-03T06:29:35.402Z,54.00
2018-07-03T06:32:03.703Z,53.50
2018-07-03T06:34:32.010Z,53.10
2018-07-03T06:37:00.294Z,52.60
2018-07-03T06:39:28.585Z,52.00
2018-07-03T06:41:56.904Z,51.10
2018-07-03T06:44:25.209Z,50.60
2018-07-03T06:46:53.516Z,50.20
2018-07-03T06:49:21.811Z,49.90
2018-07-03T06:51:50.134Z,49.60
2018-07-03T06:54:18.422Z,49.30
2018-07-03T06:56:46.734Z,48.80
2018-07-03T06:59:15.019Z,48.40
2018-07-03T07:01:43.326Z,48.40
2018-07-03T07:04:11.612Z,47.90
2018-07-03T07:06:39.923Z,47.40
2018-07-03T07:09:08.327Z,46.90
2018-07-03T07:11:36.551Z,46.80
2018-07-03T07:14:04.834Z,46.50
2018-07-03T07:16:33.141Z,46.00
2018-07-03T07:19:01.428Z,46.00
2018-07-03T07:21:29.740Z,45.00
2018-07-03T07:23:58.035Z,45.00
2018-07-03T07:26:26.346Z,45.30
2018-07-03T07:28:54.822Z,44.90
2018-07-03T07:31:23.126Z,44.30
2018-07-03T07:33:51.418Z,43.90
2018-07-03T07:36:19.725Z,43.00
2018-07-03T07:38:48.014Z,42.00
2018-07-03T07:41:16.318Z,40.30
2018-07-03T07:43:44.615Z,39.90
2018-07-03T07:46:12.932Z,37.70
2018-07-03T07:48:41.222Z,36.90
2018-07-03T07:51:09.526Z,35.40
2018-07-03T07:53:37.817Z,34.70
2018-07-03T07:56:06.156Z,33.50
2018-07-03T07:58:34.443Z,32.60
2018-07-03T08:01:02.761Z,32.00
2018-07-03T08:03:31.050Z,32.80
2018-07-03T08:05:59.366Z,33.10
2018-07-03T08:08:27.658Z,32.40
2018-07-03T08:10:55.975Z,30.20
2018-07-03T08:13:24.291Z,28.80
2018-07-03T08:15:52.594Z,28.90
2018-07-03T08:18:20.886Z,28.00
2018-07-03T08:20:49.202Z,28.10
2018-07-03T08:23:17.501Z,28.50
2018-07-03T08:25:45.830Z,28.70
2018-07-03T08:28:14.122Z,28.20
2018-07-03T08:30:42.433Z,28.40
2018-07-03T08:33:10.714Z,27.80
2018-07-03T08:35:39.007Z,28.60
2018-07-03T08:38:07.314Z,29.20
2018-07-03T08:40:35.604Z,28.80
2018-07-03T08:43:03.919Z,28.70
2018-07-03T08:45:32.215Z,29.00
2018-07-03T08:48:00.555Z,29.00
2018-07-03T08:50:28.842Z,28.10
2018-07-03T08:52:57.153Z,27.80
2018-07-03T08:55:24.677Z,27.80
2018-07-03T08:57:52.999Z,28.60
2018-07-03T09:00:21.288Z,28.20
2018-07-03T09:02:49.603Z,27.20
2018-07-03T09:05:17.894Z,27.20
2018-07-03T09:07:46.205Z,26.80
2018-07-03T09:10:14.490Z,27.40
2018-07-03T09:12:42.802Z,27.50
2018-07-03T09:15:10.332Z,27.50
2018-07-03T09:17:38.647Z,28.80
2018-07-03T09:20:06.961Z,28.30
2018-07-03T09:22:35.270Z,27.40
2018-07-03T09:25:03.573Z,26.10
2018-07-03T09:27:31.895Z,26.90
2018-07-03T09:30:00.187Z,26.90
2018-07-03T09:32:28.509Z,26.70
2018-07-03T09:34:56.039Z,26.60
2018-07-03T09:37:24.353Z,27.60
2018-07-03T09:39:52.684Z,28.00
2018-07-03T09:42:21.022Z,26.20
2018-07-03T09:44:49.314Z,27.00
2018-07-03T09:47:17.630Z,27.40
2018-07-03T09:49:45.919Z,27.10
2018-07-03T09:52:14.230Z,25.80
2018-07-03T09:54:42.545Z,26.30
2018-07-03T09:57:10.874Z,25.80
2018-07-03T09:59:39.174Z,25.10
2018-07-03T10:02:07.490Z,25.70
2018-07-03T10:04:35.018Z,25.70
2018-07-03T10:07:03.334Z,26.40
2018-07-03T10:09:31.623Z,25.10
2018-07-03T10:11:59.930Z,24.70
2018-07-03T10:14:28.222Z,24.80
2018-07-03T10:16:56.537Z,25.30
2018-07-03T10:19:24.843Z,25.10
2018-07-03T10:21:53.156Z,24.40
2018-07-03T10:24:21.446Z,24.30
2018-07-03T10:26:49.754Z,24.60
2018-07-03T10:29:18.258Z,23.70
2018-07-03T10:31:46.591Z,24.00
2018-07-03T10:34:14.908Z,24.60
2018-07-03T10:36:43.202Z,25.20
2018-07-03T10:39:11.514Z,24.70
2018-07-03T10:41:39.807Z,25.00
2018-07-03T10:44:08.122Z,24.40
2018-07-03T10:46:36.427Z,24.70
2018-07-03T10:49:04.736Z,23.90
2018-07-03T10:51:33.026Z,24.30
2018-07-03T10:54:01.342Z,24.90
2018-07-03T10:56:29.639Z,25.30
2018-07-03T10:58:57.202Z,25.30
2018-07-03T11:01:25.494Z,25.60
2018-07-03T11:03:53.208Z,25.60
2018-07-03T11:06:21.502Z,24.60
2018-07-03T11:08:49.821Z,24.80
2018-07-03T11:11:18.110Z,24.90
2018-07-03T11:13:46.435Z,24.60
2018-07-03T11:16:14.734Z,25.20
2018-07-03T11:18:43.043Z,24.10
2018-07-03T11:21:11.329Z,23.30
2018-07-03T11:23:38.880Z,23.30
2018-07-03T11:26:07.167Z,25.30
2018-07-03T11:28:35.474Z,23.40
2018-07-03T11:31:03.763Z,23.10
2018-07-03T11:33:32.078Z,23.80
2018-07-03T11:36:00.383Z,23.30
2018-07-03T11:38:28.699Z,23.10
2018-07-03T11:40:56.995Z,24.00
2018-07-03T11:43:25.321Z,23.90
2018-07-03T11:45:53.609Z,24.10
2018-07-03T11:48:21.936Z,24.70
2018-07-03T11:50:50.230Z,23.50
2018-07-03T11:53:18.541Z,23.30
2018-07-03T11:55:46.081Z,23.20
2018-07-03T11:58:14.410Z,24.30
2018-07-03T12:00:42.718Z,24.70
2018-07-03T12:03:11.027Z,24.30
2018-07-03T12:05:39.325Z,24.80
2018-07-03T12:08:07.806Z,24.50
2018-07-03T12:10:36.166Z,24.20
2018-07-03T12:13:04.665Z,24.70
2018-07-03T12:15:32.292Z,24.70
2018-07-03T12:18:00.728Z,25.80
2018-07-03T12:20:29.105Z,26.00
2018-07-03T12:22:57.554Z,25.50
2018-07-03T12:25:25.964Z,24.10
2018-07-03T12:27:53.550Z,24.10
2018-07-03T12:30:21.982Z,24.80
2018-07-03T12:32:50.343Z,23.90
2018-07-03T12:35:18.782Z,24.10
2018-07-03T12:37:47.160Z,24.40
2018-07-03T12:40:15.576Z,23.60
2018-07-03T12:42:44.003Z,23.80
2018-07-03T12:45:12.475Z,23.70
2018-07-03T12:47:40.921Z,23.90
2018-07-03T12:50:09.366Z,23.80
2018-07-03T12:52:37.702Z,23.10
2018-07-03T12:55:06.121Z,23.00
2018-07-03T12:57:34.454Z,23.30
2018-07-03T13:00:02.860Z,23.20
2018-07-03T13:02:32.140Z,22.40
2018-07-03T13:05:00.587Z,22.20
2018-07-03T13:07:28.986Z,21.80
2018-07-03T13:09:57.361Z,22.10
2018-07-03T13:12:25.797Z,22.30
2018-07-03T13:14:54.235Z,22.30
2018-07-03T13:17:22.630Z,22.40
2018-07-03T13:19:51.143Z,23.40
2018-07-03T13:22:19.518Z,23.10
2018-07-03T13:24:47.878Z,22.10
2018-07-03T13:27:16.237Z,22.80
2018-07-03T13:29:44.634Z,23.00
2018-07-03T13:32:13.021Z,23.10
2018-07-03T13:34:41.458Z,23.30
2018-07-03T13:37:09.825Z,23.50
2018-07-03T13:39:37.433Z,23.60
2018-07-03T13:42:05.825Z,22.40
2018-07-03T13:44:34.211Z,22.60
2018-07-03T13:47:02.600Z,22.50
2018-07-03T13:49:30.951Z,22.70
2018-07-03T13:51:59.282Z,22.80
2018-07-03T13:54:27.695Z,22.80
2018-07-03T13:56:56.038Z,22.50
2018-07-03T13:59:24.408Z,23.00
2018-07-03T14:01:52.722Z,23.40
2018-07-03T14:04:21.036Z,23.20
2018-07-03T14:06:49.326Z,23.30
2018-07-03T14:09:17.645Z,23.50
2018-07-03T14:11:45.938Z,23.70
2018-07-03T14:14:13.477Z,23.70
2018-07-03T14:16:41.795Z,23.30
2018-07-03T14:19:10.110Z,23.20
2018-07-03T14:21:38.411Z,23.90
2018-07-03T14:24:06.730Z,23.30
2018-07-03T14:26:35.022Z,24.20
2018-07-03T14:29:03.311Z,24.50
2018-07-03T14:31:31.626Z,24.40
2018-07-03T14:33:59.927Z,23.50
2018-07-03T14:36:28.274Z,22.80
2018-07-03T14:38:56.558Z,22.00
2018-07-03T14:41:24.875Z,22.50
2018-07-03T14:43:53.401Z,23.10
2018-07-03T14:46:21.718Z,23.20
2018-07-03T14:48:50.011Z,22.90
2018-07-03T14:51:18.332Z,22.50
2018-07-03T14:53:46.623Z,21.90
2018-07-03T14:56:14.939Z,22.30
2018-07-03T14:58:43.238Z,22.40
2018-07-03T15:01:11.556Z,22.70
2018-07-03T15:03:39.853Z,22.80
2018-07-03T15:06:08.177Z,23.90
2018-07-03T15:08:35.702Z,24.00
2018-07-03T15:11:04.026Z,24.00
2018-07-03T15:13:32.317Z,23.90
2018-07-03T15:16:00.634Z,23.90
2018-07-03T15:18:28.159Z,23.90
2018-07-03T15:20:56.476Z,24.10
2018-07-03T15:23:24.772Z,24.20
2018-07-03T15:25:53.114Z,24.30
2018-07-03T15:28:21.406Z,24.10
2018-07-03T15:30:49.719Z,24.50
2018-07-03T15:33:18.020Z,24.20
2018-07-03T15:35:46.346Z,24.60
2018-07-03T15:38:14.635Z,24.60
2018-07-03T15:40:42.945Z,24.80
2018-07-03T15:43:11.274Z,24.60
2018-07-03T15:45:39.594Z,24.60
2018-07-03T15:48:07.894Z,25.70
2018-07-03T15:50:36.215Z,25.00
2018-07-03T15:53:04.506Z,25.00
2018-07-03T15:55:32.815Z,25.60
2018-07-03T15:58:01.135Z,26.50
2018-07-03T16:00:29.450Z,26.20
2018-07-03T16:02:57.118Z,26.20
2018-07-03T16:05:45.950Z,26.00
2018-07-03T16:08:14.238Z,26.20
2018-07-03T16:10:42.551Z,26.60
2018-07-03T16:13:10.847Z,27.00
2018-07-03T16:15:39.154Z,27.40
2018-07-03T16:18:07.446Z,27.60
2018-07-03T16:20:38.189Z,27.80
2018-07-03T16:23:06.490Z,28.10
2018-07-03T16:25:34.833Z,28.70
2018-07-03T16:28:02.365Z,28.70
2018-07-03T16:30:30.688Z,28.80
2018-07-03T16:32:58.982Z,29.00
2018-07-03T16:35:27.286Z,28.60
2018-07-03T16:37:55.576Z,29.20
2018-07-03T16:40:23.887Z,29.50
2018-07-03T16:42:52.174Z,30.00
2018-07-03T16:45:20.466Z,30.30
2018-07-03T16:47:48.787Z,30.10
2018-07-03T16:50:17.076Z,30.40
2018-07-03T16:52:45.420Z,30.70
2018-07-03T16:55:12.946Z,30.70
2018-07-03T16:57:41.258Z,31.30
2018-07-03T17:00:09.654Z,31.80
2018-07-03T17:02:37.964Z,32.10
2018-07-03T17:05:06.283Z,32.60
2018-07-03T17:07:34.604Z,32.60
2018-07-03T17:10:02.899Z,32.50
2018-07-03T17:12:31.232Z,32.60
2018-07-03T17:14:59.526Z,33.00
2018-07-03T17:17:27.843Z,33.20
2018-07-03T17:19:55.377Z,33.30
2018-07-03T17:22:23.698Z,33.40
2018-07-03T17:24:51.993Z,33.50
2018-07-03T17:27:20.307Z,33.70
2018-07-03T17:29:48.603Z,34.00
2018-07-03T17:32:16.910Z,34.80
2018-07-03T17:34:45.208Z,35.30
2018-07-03T17:37:13.526Z,35.70
2018-07-03T17:39:41.063Z,35.70
2018-07-03T17:42:35.847Z,35.60
2018-07-03T17:45:19.014Z,35.80
2018-07-03T17:47:47.326Z,35.30
2018-07-03T17:50:15.618Z,34.60
2018-07-03T17:52:43.931Z,34.10
2018-07-03T17:55:12.223Z,34.20
2018-07-03T17:57:39.766Z,34.20
2018-07-03T18:00:08.056Z,34.60
2018-07-03T18:02:36.371Z,35.10
2018-07-03T18:05:03.907Z,35.10
2018-07-03T18:07:32.235Z,35.90
2018-07-03T18:10:00.522Z,35.80
2018-07-03T18:12:28.835Z,36.50
2018-07-03T18:14:57.138Z,37.20
2018-07-03T18:17:25.452Z,37.90
2018-07-03T18:19:53.742Z,38.40
2018-07-03T18:22:22.055Z,39.00
2018-07-03T18:24:50.387Z,39.80
2018-07-03T18:27:18.715Z,40.00
2018-07-03T18:29:47.015Z,40.10
2018-07-03T18:32:15.331Z,41.40
2018-07-03T18:34:43.702Z,41.20
2018-07-03T18:37:11.966Z,41.70
2018-07-03T18:39:39.485Z,41.80
2018-07-03T18:42:07.799Z,42.20
2018-07-03T18:44:36.159Z,42.50
2018-07-03T18:47:04.464Z,43.30
2018-07-03T18:49:32.762Z,44.00
2018-07-03T18:52:01.076Z,44.00
2018-07-03T18:54:29.392Z,44.20
2018-07-03T18:56:57.692Z,44.70
2018-07-03T18:59:25.997Z,44.90
2018-07-03T19:01:54.310Z,45.20
2018-07-03T19:04:21.825Z,45.20
2018-07-03T19:06:50.153Z,45.60
2018-07-03T19:09:18.451Z,46.40
2018-07-03T19:11:46.738Z,46.50
2018-07-03T19:14:15.050Z,46.90
2018-07-03T19:16:43.344Z,46.90
2018-07-03T19:19:11.663Z,47.50
2018-07-03T19:21:39.979Z,48.40
2018-07-03T19:24:07.538Z,48.40
2018-07-03T19:26:35.850Z,48.60
2018-07-03T19:29:04.166Z,50.10
2018-07-03T19:31:32.461Z,50.80
2018-07-03T19:34:00.769Z,50.30
2018-07-03T19:36:29.060Z,50.00
2018-07-03T19:38:57.382Z,49.90
2018-07-03T19:41:25.670Z,50.80
2018-07-03T19:43:53.987Z,51.70
2018-07-03T19:46:21.520Z,51.70
2018-07-03T19:48:49.834Z,52.10
2018-07-03T19:51:18.152Z,52.40
2018-07-03T19:53:46.462Z,52.80
2018-07-03T19:56:14.820Z,52.30
2018-07-03T19:58:43.211Z,52.90
2018-07-03T20:01:11.509Z,53.00
2018-07-03T20:03:39.832Z,53.90
2018-07-03T20:06:08.122Z,54.80
2018-07-03T20:08:36.438Z,54.40
2018-07-03T20:11:04.743Z,54.30
2018-07-03T20:13:33.078Z,54.40
2018-07-03T20:16:00.607Z,54.40
2018-07-03T20:18:28.925Z,55.00
2018-07-03T20:20:57.227Z,55.20
2018-07-03T20:23:25.542Z,55.60
2018-07-03T20:25:53.843Z,55.90
2018-07-03T20:28:22.174Z,56.10
2018-07-03T20:30:50.474Z,56.40
2018-07-03T20:33:18.815Z,56.60
2018-07-03T20:35:47.111Z,56.80
2018-07-03T20:38:15.423Z,57.00
2018-07-03T20:40:43.722Z,57.30
2018-07-03T20:43:11.270Z,57.30
2018-07-03T20:45:39.575Z,57.80
2018-07-03T20:48:07.885Z,57.70
2018-07-03T20:50:36.188Z,58.00
2018-07-03T20:53:04.499Z,58.20
2018-07-03T20:55:32.798Z,58.80
2018-07-03T20:58:01.867Z,58.60
2018-07-03T21:00:30.158Z,58.50
2018-07-03T21:02:58.475Z,58.30
2018-07-03T21:05:26.767Z,58.20
2018-07-03T21:07:55.058Z,58.30
2018-07-03T21:10:23.424Z,58.50
2018-07-03T21:12:51.686Z,58.50
2018-07-03T21:15:19.999Z,58.80
2018-07-03T21:17:48.294Z,58.90
2018-07-03T21:20:16.598Z,59.00
2018-07-03T21:22:44.886Z,58.70
2018-07-03T21:25:13.204Z,59.20
2018-07-03T21:27:41.503Z,59.00
2018-07-03T21:30:09.818Z,59.00
2018-07-03T21:32:38.107Z,59.10
2018-07-03T21:35:06.419Z,59.40
2018-07-03T21:37:34.714Z,59.80
2018-07-03T21:40:03.026Z,59.70
2018-07-03T21:42:31.322Z,59.60
2018-07-03T21:44:59.626Z,59.50
2018-07-03T21:47:27.928Z,59.70
2018-07-03T21:49:56.244Z,60.20
2018-07-03T21:52:24.542Z,60.60
2018-07-03T21:54:52.851Z,60.10
2018-07-03T21:57:21.142Z,60.70
2018-07-03T21:59:49.456Z,60.00
2018-07-03T22:02:17.742Z,60.10
2018-07-03T22:04:46.054Z,59.90
2018-07-03T22:07:14.338Z,59.90
2018-07-03T22:09:42.656Z,60.30
2018-07-03T22:12:10.938Z,60.50
2018-07-03T22:14:39.254Z,60.20
2018-07-03T22:17:07.551Z,59.80
2018-07-03T22:19:35.856Z,59.60
2018-07-03T22:22:04.163Z,59.40
2018-07-03T22:24:32.479Z,59.50
2018-07-03T22:27:00.770Z,59.20
2018-07-03T22:29:29.078Z,58.90
2018-07-03T22:31:57.362Z,59.20
2018-07-03T22:34:25.674Z,58.90
2018-07-03T22:36:53.991Z,59.00
2018-07-03T22:39:22.363Z,58.40
2018-07-03T22:41:50.620Z,58.90
2018-07-03T22:44:18.937Z,58.90
2018-07-03T22:46:47.226Z,59.10
2018-07-03T22:49:15.530Z,59.30
2018-07-03T22:51:43.826Z,59.60
2018-07-03T22:54:12.138Z,60.00
2018-07-03T22:56:40.422Z,60.80
2018-07-03T22:59:08.730Z,61.60
2018-07-03T23:01:37.022Z,61.50
2018-07-03T23:04:05.330Z,61.70
2018-07-03T23:06:33.644Z,61.20
2018-07-03T23:09:01.947Z,61.10
2018-07-03T23:11:30.252Z,61.10
2018-07-03T23:13:58.545Z,61.80
2018-07-03T23:16:26.853Z,61.80
2018-07-03T23:18:55.142Z,61.90
2018-07-03T23:21:23.450Z,62.30
2018-07-03T23:23:51.738Z,62.20
2018-07-03T23:26:20.047Z,62.30
2018-07-03T23:28:48.341Z,62.90
2018-07-03T23:31:16.699Z,64.10
2018-07-03T23:33:44.989Z,63.50
2018-07-03T23:36:13.316Z,63.50
2018-07-03T23:38:41.614Z,63.40
2018-07-03T23:41:09.926Z,63.50
2018-07-03T23:43:38.218Z,64.00
2018-07-03T23:46:06.033Z,64.40
2018-07-03T23:48:46.132Z,64.20
2018-07-03T23:51:26.421Z,64.30
2018-07-03T23:54:06.514Z,64.40
2018-07-03T23:56:46.863Z,64.30
2018-07-03T23:59:27.047Z,64.60
